createdAt,value
2022-08-05T00:00:16.774Z,22.19
2022-08-05T00:02:51.505Z,22.20
2022-08-05T00:06:01.876Z,22.04
2022-08-05T00:08:32.912Z,21.77
2022-08-05T00:10:53.446Z,21.80
2022-08-05T00:13:19.983Z,21.67
2022-08-05T00:15:55.069Z,21.79
2022-08-05T00:18:23.480Z,21.75
2022-08-05T00:20:51.158Z,21.87
2022-08-05T00:23:44.287Z,21.84
2022-08-05T00:26:05.727Z,21.92
2022-08-05T00:28:32.627Z,21.95
2022-08-05T00:31:02.918Z,21.76
2022-08-05T00:34:56.662Z,21.75
2022-08-05T00:37:10.923Z,21.68
2022-08-05T00:39:04.625Z,21.72
2022-08-05T00:41:51.712Z,21.64
2022-08-05T00:44:19.047Z,21.56
2022-08-05T00:46:47.614Z,21.62
2022-08-05T00:49:21.053Z,21.65
2022-08-05T00:51:52.029Z,21.63
2022-08-05T00:54:19.314Z,21.75
2022-08-05T00:56:51.836Z,21.72
2022-08-05T00:59:19.343Z,21.41
2022-08-05T01:01:49.109Z,21.46
2022-08-05T01:04:16.182Z,21.46
2022-08-05T01:06:48.502Z,21.67
2022-08-05T01:09:17.402Z,21.59
2022-08-05T01:11:49.715Z,21.57
2022-08-05T01:14:33.823Z,21.51
2022-08-05T01:17:05.824Z,21.51
2022-08-05T01:20:01.880Z,21.46
2022-08-05T01:22:41.664Z,21.44
2022-08-05T01:25:55.792Z,21.55
2022-08-05T01:28:50.430Z,21.50
2022-08-05T01:31:44.535Z,21.56
2022-08-05T01:34:32.914Z,21.43
2022-08-05T01:37:04.005Z,21.51
2022-08-05T01:39:46.667Z,21.42
2022-08-05T01:42:18.009Z,21.26
2022-08-05T01:44:45.723Z,21.34
2022-08-05T01:47:23.205Z,21.28
2022-08-05T01:50:01.847Z,21.32
2022-08-05T01:52:32.247Z,21.33
2022-08-05T01:55:04.564Z,21.29
2022-08-05T01:58:09.706Z,21.33
2022-08-05T02:00:30.511Z,21.36
2022-08-05T02:03:06.770Z,21.28
2022-08-05T02:05:53.481Z,21.27
2022-08-05T02:08:31.160Z,21.32
2022-08-05T02:11:23.592Z,21.40
2022-08-05T02:14:27.069Z,21.30
2022-08-05T02:16:59.410Z,21.26
2022-08-05T02:19:35.031Z,21.39
2022-08-05T02:22:03.832Z,21.38
2022-08-05T02:24:38.110Z,21.38
2022-08-05T02:27:09.923Z,21.32
2022-08-05T02:29:58.829Z,21.22
2022-08-05T02:32:30.975Z,21.15
2022-08-05T02:35:02.169Z,21.16
2022-08-05T02:37:43.281Z,21.07
2022-08-05T02:40:17.030Z,20.97
2022-08-05T02:42:52.724Z,20.94
2022-08-05T02:45:24.049Z,20.99
2022-08-05T02:48:06.711Z,21.05
2022-08-05T02:50:43.626Z,20.96
2022-08-05T02:53:16.120Z,20.94
2022-08-05T02:55:52.155Z,20.82
2022-08-05T02:58:26.590Z,20.92
2022-08-05T03:00:56.511Z,20.99
2022-08-05T03:03:23.447Z,21.00
2022-08-05T03:06:57.253Z,21.00
2022-08-05T03:08:42.543Z,21.00
2022-08-05T03:11:57.640Z,21.05
2022-08-05T03:14:13.529Z,21.00
2022-08-05T03:16:40.476Z,20.92
2022-08-05T03:19:17.080Z,20.96
2022-08-05T03:21:53.838Z,20.88
2022-08-05T03:24:29.404Z,20.94
2022-08-05T03:26:58.640Z,20.93
2022-08-05T03:29:44.796Z,20.81
2022-08-05T03:32:14.371Z,20.73
2022-08-05T03:34:42.715Z,20.68
2022-08-05T03:37:18.652Z,20.55
2022-08-05T03:40:01.079Z,20.63
2022-08-05T03:42:29.171Z,20.60
2022-08-05T03:44:58.615Z,20.65
2022-08-05T03:47:25.531Z,20.68
2022-08-05T03:49:57.428Z,20.67
2022-08-05T03:52:38.455Z,20.74
2022-08-05T03:56:04.960Z,20.79
2022-08-05T03:58:12.427Z,20.73
2022-08-05T04:00:41.913Z,20.69
2022-08-05T04:03:15.010Z,20.58
2022-08-05T04:05:56.786Z,20.54
2022-08-05T04:08:34.589Z,20.55
2022-08-05T04:11:04.798Z,20.51
2022-08-05T04:13:49.915Z,20.54
2022-08-05T04:16:24.281Z,20.60
2022-08-05T04:18:57.814Z,20.58
2022-08-05T04:22:10.163Z,20.51
2022-08-05T04:24:18.754Z,20.46
2022-08-05T04:26:46.471Z,20.34
2022-08-05T04:29:13.184Z,20.40
2022-08-05T04:31:41.058Z,20.36
2022-08-05T04:34:31.846Z,20.27
2022-08-05T04:36:56.329Z,20.18
2022-08-05T04:39:23.261Z,20.12
2022-08-05T04:41:51.183Z,20.22
2022-08-05T04:44:24.487Z,20.21
2022-08-05T04:46:58.818Z,20.26
2022-08-05T04:49:38.894Z,20.16
2022-08-05T04:52:13.032Z,20.22
2022-08-05T04:54:39.574Z,20.10
2022-08-05T04:57:06.266Z,20.00
2022-08-05T04:59:38.608Z,19.98
2022-08-05T05:02:41.270Z,20.02
2022-08-05T05:04:53.094Z,20.02
2022-08-05T05:07:29.728Z,20.04
2022-08-05T05:09:59.669Z,20.04
2022-08-05T05:12:29.390Z,20.06
2022-08-05T05:14:55.914Z,20.04
2022-08-05T05:17:24.532Z,20.11
2022-08-05T05:19:55.219Z,20.19
2022-08-05T05:22:26.312Z,20.16
2022-08-05T05:24:59.862Z,20.21
2022-08-05T05:27:44.137Z,20.20
2022-08-05T05:30:29.556Z,20.24
2022-08-05T05:33:00.825Z,20.02
2022-08-05T05:35:31.577Z,19.98
2022-08-05T05:38:09.502Z,19.98
2022-08-05T05:40:48.327Z,19.84
2022-08-05T05:43:27.736Z,19.92
2022-08-05T05:46:05.107Z,19.90
2022-08-05T05:48:32.451Z,19.83
2022-08-05T05:51:15.189Z,19.89
2022-08-05T05:53:54.062Z,19.91
2022-08-05T05:56:31.840Z,19.93
2022-08-05T05:59:03.241Z,20.02
2022-08-05T06:01:36.933Z,20.21
2022-08-05T06:04:07.264Z,20.29
2022-08-05T06:06:34.828Z,20.30
2022-08-05T06:09:03.201Z,20.22
2022-08-05T06:11:31.042Z,20.26
2022-08-05T06:13:57.859Z,20.41
2022-08-05T06:16:32.708Z,20.61
2022-08-05T06:19:01.257Z,20.83
2022-08-05T06:21:35.900Z,20.91
2022-08-05T06:24:11.619Z,20.75
2022-08-05T06:26:51.531Z,20.68
2022-08-05T06:29:43.121Z,20.73
2022-08-05T06:32:26.186Z,20.82
2022-08-05T06:34:57.202Z,21.02
2022-08-05T06:37:56.390Z,20.98
2022-08-05T06:40:13.735Z,20.83
2022-08-05T06:42:40.610Z,20.79
2022-08-05T06:45:08.518Z,20.75
2022-08-05T06:48:47.408Z,20.58
2022-08-05T06:50:23.684Z,20.64
2022-08-05T06:52:58.663Z,20.66
2022-08-05T06:55:30.030Z,20.88
2022-08-05T06:58:29.580Z,21.13
2022-08-05T07:00:49.415Z,21.19
2022-08-05T07:03:17.015Z,21.10
2022-08-05T07:05:44.084Z,21.08
2022-08-05T07:08:13.069Z,21.17
2022-08-05T07:10:52.865Z,21.11
2022-08-05T07:13:58.256Z,21.01
2022-08-05T07:17:56.402Z,21.12
2022-08-05T07:22:28.943Z,21.13
2022-08-05T07:25:24.010Z,21.20
2022-08-05T07:28:00.688Z,21.30
2022-08-05T07:30:33.758Z,21.25
2022-08-05T07:33:08.866Z,21.26
2022-08-05T07:35:55.602Z,21.16
2022-08-05T07:38:33.618Z,21.08
2022-08-05T07:42:09.396Z,21.11
2022-08-05T07:43:59.187Z,21.00
2022-08-05T07:46:28.063Z,20.97
2022-08-05T07:49:02.984Z,21.22
2022-08-05T07:51:40.577Z,21.32
2022-08-05T07:54:15.216Z,21.21
2022-08-05T07:57:01.506Z,21.37
2022-08-05T07:59:38.908Z,21.41
2022-08-05T08:02:16.554Z,21.83
2022-08-05T08:04:45.471Z,22.07
2022-08-05T08:07:13.198Z,22.10
2022-08-05T08:09:40.182Z,22.22
2022-08-05T08:12:16.494Z,22.37
2022-08-05T08:14:54.026Z,21.91
2022-08-05T08:17:21.445Z,21.92
2022-08-05T08:20:21.697Z,21.97
2022-08-05T08:22:35.173Z,22.22
2022-08-05T08:25:01.984Z,22.23
2022-08-05T08:27:35.659Z,22.49
2022-08-05T08:30:19.609Z,22.74
2022-08-05T08:32:54.740Z,23.22
2022-08-05T08:35:21.333Z,23.44
2022-08-05T08:37:53.572Z,23.58
2022-08-05T08:40:23.743Z,23.73
2022-08-05T08:42:52.962Z,23.66
2022-08-05T08:45:27.063Z,23.77
2022-08-05T08:48:11.849Z,23.62
2022-08-05T08:51:03.885Z,23.95
2022-08-05T08:53:40.335Z,23.95
2022-08-05T08:56:11.837Z,23.67
2022-08-05T08:58:44.539Z,23.54
2022-08-05T09:01:16.241Z,23.53
2022-08-05T09:03:57.555Z,23.69
2022-08-05T09:06:29.260Z,23.66
2022-08-05T09:08:58.324Z,23.63
2022-08-05T09:11:51.638Z,23.65
2022-08-05T09:14:56.727Z,23.74
2022-08-05T09:17:08.126Z,23.96
2022-08-05T09:20:01.971Z,24.05
2022-08-05T09:22:31.750Z,24.03
2022-08-05T09:25:13.493Z,24.18
2022-08-05T09:28:04.169Z,24.47
2022-08-05T09:30:27.374Z,24.02
2022-08-05T09:33:01.423Z,23.68
2022-08-05T09:35:29.449Z,23.73
2022-08-05T09:38:17.510Z,23.98
2022-08-05T09:40:51.773Z,24.06
2022-08-05T09:43:45.693Z,24.24
2022-08-05T09:46:28.340Z,24.46
2022-08-05T09:49:07.595Z,24.62
2022-08-05T09:51:44.066Z,24.75
2022-08-05T09:54:21.350Z,24.54
2022-08-05T09:56:56.075Z,24.41
2022-08-05T09:59:27.624Z,24.20
2022-08-05T10:01:57.933Z,23.97
2022-08-05T10:04:35.936Z,24.13
2022-08-05T10:07:20.575Z,24.08
2022-08-05T10:10:14.325Z,24.12
2022-08-05T10:12:49.603Z,24.30
2022-08-05T10:15:21.037Z,24.21
2022-08-05T10:18:07.152Z,24.31
2022-08-05T10:20:36.035Z,24.20
2022-08-05T10:23:02.787Z,24.12
2022-08-05T10:25:30.331Z,24.35
2022-08-05T10:28:13.937Z,24.37
2022-08-05T10:32:47.786Z,24.46
2022-08-05T10:33:35.250Z,25.12
2022-08-05T10:36:04.473Z,25.49
2022-08-05T10:38:33.377Z,25.40
2022-08-05T10:41:03.903Z,25.61
2022-08-05T10:43:37.017Z,25.35
2022-08-05T10:46:08.497Z,25.24
2022-08-05T10:48:58.137Z,25.03
2022-08-05T10:51:57.788Z,25.28
2022-08-05T10:54:46.885Z,25.05
2022-08-05T10:57:29.573Z,25.17
2022-08-05T11:00:20.546Z,25.37
2022-08-05T11:03:23.032Z,25.46
2022-08-05T11:06:03.980Z,25.33
2022-08-05T11:08:38.187Z,25.26
2022-08-05T11:11:41.947Z,25.00
2022-08-05T11:14:13.281Z,25.08
2022-08-05T11:16:56.016Z,25.18
2022-08-05T11:20:16.773Z,25.56
2022-08-05T11:22:37.363Z,25.43
2022-08-05T11:26:05.069Z,25.27
2022-08-05T11:28:17.241Z,25.16
2022-08-05T11:30:58.579Z,25.11
2022-08-05T11:33:43.728Z,24.93
2022-08-05T11:36:16.321Z,24.83
2022-08-05T11:39:01.550Z,25.03
2022-08-05T11:41:58.204Z,25.28
2022-08-05T11:44:40.257Z,25.06
2022-08-05T11:47:14.068Z,25.19
2022-08-05T11:49:43.331Z,25.78
2022-08-05T11:52:29.275Z,26.17
2022-08-05T11:54:58.355Z,25.64
2022-08-05T11:57:39.333Z,25.17
2022-08-05T12:00:31.645Z,25.37
2022-08-05T12:02:58.507Z,25.67
2022-08-05T12:05:36.460Z,25.82
2022-08-05T12:08:11.765Z,25.65
2022-08-05T12:10:48.799Z,25.47
2022-08-05T12:13:27.899Z,25.47
2022-08-05T12:16:17.441Z,25.64
2022-08-05T12:18:52.483Z,25.76
2022-08-05T12:21:31.841Z,25.72
2022-08-05T12:24:07.739Z,25.49
2022-08-05T12:26:44.020Z,25.40
2022-08-05T12:29:16.236Z,25.76
2022-08-05T12:32:01.871Z,25.69
2022-08-05T12:34:32.016Z,25.64
2022-08-05T12:37:01.352Z,25.74
2022-08-05T12:39:37.449Z,25.62
2022-08-05T12:42:17.977Z,25.70
2022-08-05T12:44:47.454Z,25.48
2022-08-05T12:47:26.533Z,25.24
2022-08-05T12:50:04.252Z,25.40
2022-08-05T12:52:38.740Z,25.57
2022-08-05T12:55:25.458Z,25.45
2022-08-05T12:58:48.828Z,25.59
2022-08-05T13:02:00.180Z,26.06
2022-08-05T13:03:33.129Z,25.84
2022-08-05T13:06:01.331Z,25.80
2022-08-05T13:08:32.341Z,26.14
2022-08-05T13:11:00.893Z,26.52
2022-08-05T13:14:06.379Z,26.50
2022-08-05T13:16:16.739Z,26.12
2022-08-05T13:18:57.851Z,26.10
2022-08-05T13:21:28.117Z,26.51
2022-08-05T13:24:04.502Z,26.50
2022-08-05T13:26:31.110Z,26.54
2022-08-05T13:28:59.348Z,26.71
2022-08-05T13:31:34.018Z,26.97
2022-08-05T13:34:20.917Z,26.97
2022-08-05T13:36:53.496Z,26.99
2022-08-05T13:39:24.534Z,27.05
2022-08-05T13:42:07.467Z,27.16
2022-08-05T13:44:45.021Z,26.87
2022-08-05T13:47:35.996Z,26.45
2022-08-05T13:50:04.637Z,26.42
2022-08-05T13:52:35.269Z,26.36
2022-08-05T13:55:02.436Z,25.66
2022-08-05T13:57:51.483Z,25.89
2022-08-05T14:00:27.624Z,25.93
2022-08-05T14:02:55.527Z,25.83
2022-08-05T14:05:48.574Z,25.67
2022-08-05T14:08:19.878Z,25.17
2022-08-05T14:10:48.404Z,25.32
2022-08-05T14:13:15.472Z,25.48
2022-08-05T14:16:04.817Z,25.66
2022-08-05T14:18:29.218Z,25.85
2022-08-05T14:20:55.837Z,26.09
2022-08-05T14:23:26.047Z,26.46
2022-08-05T14:25:58.465Z,26.14
2022-08-05T14:28:27.584Z,26.10
2022-08-05T14:30:59.054Z,26.05
2022-08-05T14:33:25.741Z,26.03
2022-08-05T14:35:54.449Z,25.84
2022-08-05T14:38:31.961Z,25.84
2022-08-05T14:41:06.266Z,26.13
2022-08-05T14:43:59.451Z,26.03
2022-08-05T14:46:28.186Z,25.50
2022-08-05T14:48:57.266Z,25.26
2022-08-05T14:51:23.771Z,25.18
2022-08-05T14:54:06.754Z,25.71
2022-08-05T14:56:38.111Z,26.03
2022-08-05T14:59:11.358Z,25.88
2022-08-05T15:01:47.963Z,25.45
2022-08-05T15:04:15.284Z,25.46
2022-08-05T15:06:42.174Z,24.89
2022-08-05T15:09:16.069Z,25.36
2022-08-05T15:12:03.900Z,25.41
2022-08-05T15:14:35.773Z,25.87
2022-08-05T15:17:44.249Z,26.25
2022-08-05T15:19:56.097Z,26.51
2022-08-05T15:22:26.979Z,26.53
2022-08-05T15:24:55.829Z,27.06
2022-08-05T15:27:22.315Z,26.84
2022-08-05T15:29:52.795Z,26.29
2022-08-05T15:32:28.574Z,25.98
2022-08-05T15:34:56.148Z,25.36
2022-08-05T15:38:32.775Z,25.19
2022-08-05T15:41:04.195Z,24.71
2022-08-05T15:43:01.620Z,24.58
2022-08-05T15:45:43.570Z,24.53
2022-08-05T15:48:14.390Z,24.49
2022-08-05T15:50:41.620Z,24.71
2022-08-05T15:53:10.744Z,24.79
2022-08-05T15:56:01.925Z,24.41
2022-08-05T15:58:26.463Z,24.21
2022-08-05T16:01:04.319Z,24.15
2022-08-05T16:03:40.943Z,24.06
2022-08-05T16:06:08.387Z,24.14
2022-08-05T16:08:38.238Z,23.69
2022-08-05T16:11:05.082Z,23.81
2022-08-05T16:13:31.936Z,23.70
2022-08-05T16:16:03.382Z,23.89
2022-08-05T16:18:30.556Z,24.36
2022-08-05T16:20:57.430Z,24.77
2022-08-05T16:23:24.233Z,24.37
2022-08-05T16:25:55.824Z,24.28
2022-08-05T16:28:24.234Z,24.11
2022-08-05T16:30:52.199Z,24.78
2022-08-05T16:33:19.429Z,25.84
2022-08-05T16:35:49.895Z,26.37
2022-08-05T16:38:25.631Z,27.07
2022-08-05T16:41:00.578Z,27.64
2022-08-05T16:43:30.433Z,27.75
2022-08-05T16:46:04.851Z,28.09
2022-08-05T16:48:36.430Z,28.99
2022-08-05T16:51:08.759Z,29.23
2022-08-05T16:54:04.249Z,29.50
2022-08-05T16:56:24.823Z,29.30
2022-08-05T16:58:51.530Z,29.36
2022-08-05T17:01:18.913Z,28.64
2022-08-05T17:03:46.021Z,28.56
2022-08-05T17:06:12.949Z,29.05
2022-08-05T17:08:52.854Z,29.10
2022-08-05T17:11:25.189Z,29.70
2022-08-05T17:14:05.511Z,29.59
2022-08-05T17:16:36.123Z,29.44
2022-08-05T17:19:07.533Z,29.37
2022-08-05T17:21:37.267Z,29.66
2022-08-05T17:24:19.496Z,29.88
2022-08-05T17:26:56.283Z,29.59
2022-08-05T17:29:33.887Z,29.44
2022-08-05T17:32:11.875Z,29.75
2022-08-05T17:34:49.119Z,30.36
2022-08-05T17:37:39.440Z,30.41
2022-08-05T17:40:10.303Z,31.00
2022-08-05T17:42:41.830Z,32.05
2022-08-05T17:45:20.596Z,31.53
2022-08-05T17:47:53.394Z,29.17
2022-08-05T17:50:28.888Z,26.93
2022-08-05T17:53:01.337Z,26.33
2022-08-05T17:55:37.353Z,26.33
2022-08-05T17:58:09.624Z,26.95
2022-08-05T18:00:40.771Z,26.70
2022-08-05T18:03:28.185Z,26.32
2022-08-05T18:06:04.002Z,25.23
2022-08-05T18:08:33.036Z,24.54
2022-08-05T18:11:00.972Z,23.80
2022-08-05T18:13:36.829Z,23.08
2022-08-05T18:16:13.522Z,22.63
2022-08-05T18:18:41.373Z,22.56
2022-08-05T18:21:21.225Z,22.47
2022-08-05T18:23:49.829Z,22.34
2022-08-05T18:26:20.948Z,22.25
2022-08-05T18:28:54.709Z,22.04
2022-08-05T18:31:23.464Z,21.72
2022-08-05T18:33:51.742Z,21.54
2022-08-05T18:36:19.264Z,21.30
2022-08-05T18:38:46.648Z,21.29
2022-08-05T18:41:56.462Z,21.14
2022-08-05T18:44:06.670Z,21.08
2022-08-05T18:46:34.564Z,21.00
2022-08-05T18:49:23.341Z,21.06
2022-08-05T18:52:15.493Z,21.14
2022-08-05T18:54:45.956Z,21.11
2022-08-05T18:57:15.010Z,21.01
2022-08-05T19:00:01.702Z,20.93
2022-08-05T19:02:29.072Z,20.98
2022-08-05T19:05:02.460Z,20.92
2022-08-05T19:07:47.704Z,20.72
2022-08-05T19:10:15.109Z,20.44
2022-08-05T19:12:43.117Z,20.48
2022-08-05T19:15:25.219Z,20.53
2022-08-05T19:18:08.739Z,20.46
2022-08-05T19:20:41.785Z,20.37
2022-08-05T19:24:03.556Z,20.28
2022-08-05T19:26:02.547Z,20.16
2022-08-05T19:28:34.816Z,19.90
2022-08-05T19:31:01.493Z,20.01
2022-08-05T19:33:36.224Z,20.06
2022-08-05T19:36:06.990Z,20.14
2022-08-05T19:38:37.051Z,19.96
2022-08-05T19:41:07.205Z,19.95
2022-08-05T19:44:05.805Z,19.87
2022-08-05T19:46:29.483Z,19.95
2022-08-05T19:48:57.778Z,20.02
2022-08-05T19:52:05.070Z,20.03
2022-08-05T19:54:21.903Z,19.87
2022-08-05T19:56:56.216Z,19.90
2022-08-05T19:59:55.476Z,19.74
2022-08-05T20:02:11.027Z,19.66
2022-08-05T20:04:38.168Z,19.65
2022-08-05T20:07:13.184Z,19.60
2022-08-05T20:09:54.143Z,19.73
2022-08-05T20:12:23.457Z,19.57
2022-08-05T20:14:52.469Z,19.59
2022-08-05T20:17:19.839Z,19.66
2022-08-05T20:19:50.621Z,19.58
2022-08-05T20:22:17.296Z,19.70
2022-08-05T20:24:47.104Z,19.71
2022-08-05T20:27:15.826Z,19.72
2022-08-05T20:29:42.598Z,19.64
2022-08-05T20:32:25.160Z,19.72
2022-08-05T20:34:51.959Z,19.71
2022-08-05T20:38:04.909Z,19.57
2022-08-05T20:40:05.807Z,19.47
2022-08-05T20:42:33.247Z,19.40
2022-08-05T20:44:59.760Z,19.39
2022-08-05T20:47:32.210Z,19.42
2022-08-05T20:49:59.381Z,19.47
2022-08-05T20:52:26.341Z,19.43
2022-08-05T20:54:59.703Z,19.28
2022-08-05T20:57:43.942Z,19.31
2022-08-05T21:00:40.310Z,19.32
2022-08-05T21:03:06.959Z,19.27
2022-08-05T21:05:47.601Z,19.25
2022-08-05T21:08:20.927Z,19.24
2022-08-05T21:10:53.605Z,19.17
2022-08-05T21:13:26.582Z,19.07
2022-08-05T21:16:09.117Z,18.89
2022-08-05T21:18:35.830Z,18.86
2022-08-05T21:21:02.468Z,18.77
2022-08-05T21:23:29.261Z,18.69
2022-08-05T21:26:04.235Z,18.60
2022-08-05T21:28:48.044Z,18.53
2022-08-05T21:31:17.995Z,18.52
2022-08-05T21:33:47.878Z,18.46
2022-08-05T21:36:27.504Z,18.47
2022-08-05T21:38:56.717Z,18.47
2022-08-05T21:41:24.646Z,18.40
2022-08-05T21:44:03.828Z,18.42
2022-08-05T21:46:34.624Z,18.41
2022-08-05T21:49:04.576Z,18.42
2022-08-05T21:52:22.219Z,18.40
2022-08-05T21:54:27.908Z,18.38
2022-08-05T21:57:29.277Z,18.31
2022-08-05T22:00:02.930Z,18.26
2022-08-05T22:02:30.710Z,18.16
2022-08-05T22:04:58.809Z,18.17
2022-08-05T22:07:54.167Z,18.17
2022-08-05T22:10:26.651Z,18.08
2022-08-05T22:12:54.098Z,18.14
2022-08-05T22:16:02.654Z,18.05
2022-08-05T22:18:07.245Z,18.03
2022-08-05T22:20:39.151Z,18.03
2022-08-05T22:24:03.171Z,18.03
2022-08-05T22:26:31.270Z,18.06
2022-08-05T22:28:58.115Z,18.01
2022-08-05T22:31:24.929Z,18.00
2022-08-05T22:34:01.320Z,17.99
2022-08-05T22:36:29.582Z,18.02
2022-08-05T22:38:56.833Z,18.01
2022-08-05T22:42:05.044Z,17.93
2022-08-05T22:44:12.094Z,17.85
2022-08-05T22:46:40.055Z,17.82
2022-08-05T22:49:23.620Z,17.81
2022-08-05T22:52:04.911Z,17.73
2022-08-05T22:54:33.459Z,17.78
2022-08-05T22:57:01.728Z,17.81
2022-08-05T22:59:48.449Z,17.80
2022-08-05T23:02:28.921Z,17.81
2022-08-05T23:04:57.878Z,17.74
2022-08-05T23:07:28.678Z,17.63
2022-08-05T23:10:01.143Z,17.60
2022-08-05T23:12:32.431Z,17.53
2022-08-05T23:15:03.503Z,17.43
2022-08-05T23:17:35.019Z,17.34
2022-08-05T23:20:10.511Z,17.37
2022-08-05T23:22:43.605Z,17.40
2022-08-05T23:25:13.917Z,17.47
2022-08-05T23:27:57.913Z,17.36
2022-08-05T23:30:29.240Z,17.37
2022-08-05T23:32:57.946Z,17.31
2022-08-05T23:35:28.577Z,17.18
2022-08-05T23:38:01.585Z,17.13
2022-08-05T23:40:28.285Z,17.07
2022-08-05T23:42:54.858Z,17.04
2022-08-05T23:45:23.739Z,16.99
2022-08-05T23:47:53.804Z,16.97
2022-08-05T23:50:26.060Z,16.97
2022-08-05T23:52:55.248Z,17.05
2022-08-05T23:55:22.402Z,16.99
2022-08-05T23:57:52.917Z,16.99
